Time;durP1;ratioP1;P1;durP2;ratioP2;P2;SDS_P1;SDS_P2;PMS_P1;PMS_P2;Temp;Humidity;BMP_temperature;BMP_pressure;BME280_temperature;BME280_humidity;BME280_pressure;Samples;Min_cycle;Max_cycle;Signal;HPM_P1;HPM_P2
2023/09/02 00:00:26;0.00;0.00;0.62;0.00;0.00;0.62;2.30;1.50;;;27.80;29.60;;;;;;2266258;61;20409;-57
2023/09/02 00:03:11;0.00;0.00;0.62;0.00;0.00;0.62;2.10;1.80;;;27.80;29.60;;;;;;2266442;61;20360;-57
2023/09/02 00:05:57;0.00;0.00;0.62;0.00;0.00;0.62;2.43;1.57;;;27.80;29.70;;;;;;2266469;61;20411;-55
2023/09/02 00:08:41;0.00;0.00;0.62;0.00;0.00;0.62;2.00;1.63;;;27.80;29.70;;;;;;2265945;61;20417;-57
2023/09/02 00:11:26;0.00;0.00;0.62;0.00;0.00;0.62;1.77;1.37;;;27.80;29.70;;;;;;2266283;61;20936;-54
2023/09/02 00:14:11;0.00;0.00;0.62;0.00;0.00;0.62;2.07;1.60;;;27.80;29.70;;;;;;2265956;61;20403;-55
2023/09/02 00:16:56;0.00;0.00;0.62;0.00;0.00;0.62;2.20;1.50;;;27.80;29.70;;;;;;2266377;61;20396;-55
2023/09/02 00:19:41;0.00;0.00;0.62;0.00;0.00;0.62;3.40;1.80;;;27.70;29.60;;;;;;2265947;61;20368;-54
2023/09/02 00:22:31;0.00;0.00;0.62;0.00;0.00;0.62;2.30;1.50;;;27.80;29.70;;;;;;2265363;61;20394;-52
2023/09/02 00:25:15;0.00;0.00;0.62;0.00;0.00;0.62;2.23;1.47;;;27.70;29.70;;;;;;2264811;61;20925;-55
2023/09/02 00:28:00;0.00;0.00;0.62;0.00;0.00;0.62;2.10;1.40;;;27.70;29.70;;;;;;2265158;61;20448;-52
2023/09/02 00:30:44;0.00;0.00;0.62;0.00;0.00;0.62;1.80;1.50;;;27.70;29.70;;;;;;2265195;61;20470;-54
2023/09/02 00:33:29;0.00;0.00;0.62;0.00;0.00;0.62;2.23;1.50;;;27.80;29.80;;;;;;2265397;61;20771;-54
2023/09/02 00:36:14;0.00;0.00;0.62;0.00;0.00;0.62;2.83;2.00;;;27.70;29.70;;;;;;2264885;61;20383;-56
2023/09/02 00:39:00;0.00;0.00;0.62;0.00;0.00;0.62;1.90;1.17;;;27.70;29.70;;;;;;2265043;61;20360;-57
2023/09/02 00:41:48;0.00;0.00;0.62;0.00;0.00;0.62;2.37;1.67;;;27.70;29.70;;;;;;2265669;61;20421;-57
2023/09/02 00:44:35;0.00;0.00;0.62;0.00;0.00;0.62;2.10;1.30;;;27.70;29.80;;;;;;2265435;61;20387;-55
2023/09/02 00:47:20;0.00;0.00;0.62;0.00;0.00;0.62;2.43;1.60;;;27.80;29.80;;;;;;2266005;61;20463;-56
2023/09/02 00:50:06;0.00;0.00;0.62;0.00;0.00;0.62;2.17;1.63;;;27.70;29.80;;;;;;2266120;61;20419;-57
2023/09/02 00:52:51;0.00;0.00;0.62;0.00;0.00;0.62;2.07;1.53;;;27.80;29.80;;;;;;2266376;61;20368;-56
2023/09/02 00:55:39;0.00;0.00;0.62;0.00;0.00;0.62;2.30;1.70;;;27.70;29.80;;;;;;2266391;61;20427;-56
2023/09/02 00:58:24;0.00;0.00;0.62;0.00;0.00;0.62;2.07;1.63;;;27.80;29.80;;;;;;2266356;61;20707;-53
2023/09/02 01:01:09;0.00;0.00;0.62;0.00;0.00;0.62;2.50;1.70;;;27.70;29.80;;;;;;2265769;61;20367;-56
2023/09/02 01:03:55;0.00;0.00;0.62;0.00;0.00;0.62;1.80;1.30;;;27.70;29.80;;;;;;2265486;61;20761;-54
2023/09/02 01:06:42;0.00;0.00;0.62;0.00;0.00;0.62;2.80;1.67;;;27.70;29.80;;;;;;2265911;61;20889;-53
2023/09/02 01:09:26;0.00;0.00;0.62;0.00;0.00;0.62;2.13;1.40;;;27.70;29.80;;;;;;2266444;61;20429;-54
2023/09/02 01:12:14;0.00;0.00;0.62;0.00;0.00;0.62;1.80;1.60;;;27.70;29.80;;;;;;2265777;61;20457;-54
2023/09/02 01:14:58;0.00;0.00;0.62;0.00;0.00;0.62;2.20;1.70;;;27.70;29.80;;;;;;2265919;61;20400;-53
2023/09/02 01:17:43;0.00;0.00;0.62;0.00;0.00;0.62;2.27;1.70;;;27.70;29.80;;;;;;2266333;61;20403;-57
2023/09/02 01:20:42;0.00;0.00;0.62;0.00;0.00;0.62;2.60;1.80;;;27.70;29.80;;;;;;2265856;61;20386;-55
2023/09/02 01:23:56;0.00;0.00;0.62;0.00;0.00;0.62;1.80;1.37;;;27.70;29.80;;;;;;2265468;61;20425;-55
2023/09/02 01:27:16;0.00;0.00;0.62;0.00;0.00;0.62;1.80;1.47;;;27.70;29.80;;;;;;2266288;61;20991;-55
2023/09/02 01:30:06;0.00;0.00;0.62;0.00;0.00;0.62;2.33;1.60;;;27.70;29.90;;;;;;2264831;61;20417;-53
2023/09/02 01:32:54;0.00;0.00;0.62;0.00;0.00;0.62;2.47;1.87;;;27.70;29.90;;;;;;2266246;61;20359;-53
2023/09/02 01:35:40;0.00;0.00;0.62;0.00;0.00;0.62;1.80;1.30;;;27.70;29.90;;;;;;2265741;61;20853;-55
2023/09/02 01:38:27;0.00;0.00;0.62;0.00;0.00;0.62;2.13;1.70;;;27.70;29.90;;;;;;2265827;61;20392;-52
2023/09/02 01:41:14;0.00;0.00;0.62;0.00;0.00;0.62;2.20;1.53;;;27.70;29.90;;;;;;2266391;61;20905;-56
2023/09/02 01:44:00;0.00;0.00;0.62;0.00;0.00;0.62;2.53;2.10;;;27.70;29.90;;;;;;2265113;61;20406;-55
2023/09/02 01:46:46;0.00;0.00;0.62;0.00;0.00;0.62;2.20;1.70;;;27.70;29.90;;;;;;2262584;61;20377;-56
2023/09/02 01:49:32;0.00;0.00;0.62;0.00;0.00;0.62;2.17;1.73;;;27.70;29.90;;;;;;2262016;61;20364;-53
2023/09/02 01:52:18;0.00;0.00;0.62;0.00;0.00;0.62;2.80;1.63;;;27.70;29.90;;;;;;2261184;61;20400;-55
2023/09/02 01:55:06;0.00;0.00;0.62;0.00;0.00;0.62;3.40;1.60;;;27.70;29.90;;;;;;2258765;61;20499;-55
2023/09/02 01:57:54;0.00;0.00;0.62;0.00;0.00;0.62;2.10;1.50;;;27.70;29.90;;;;;;2304539;58;20956;-56
2023/09/02 02:00:40;0.00;0.00;0.62;0.00;0.00;0.62;2.03;1.47;;;27.70;29.90;;;;;;2265868;61;20901;-56
2023/09/02 02:03:30;0.00;0.00;0.62;0.00;0.00;0.62;2.07;1.60;;;27.70;29.90;;;;;;2265593;61;20420;-51
2023/09/02 02:06:17;0.00;0.00;0.62;0.00;0.00;0.62;2.07;1.67;;;27.70;30.00;;;;;;2265478;61;20399;-53
2023/09/02 02:09:05;0.00;0.00;0.62;0.00;0.00;0.62;2.00;1.40;;;27.70;30.00;;;;;;2265498;61;20415;-56
2023/09/02 02:11:51;0.00;0.00;0.62;0.00;0.00;0.62;2.00;1.60;;;27.70;30.00;;;;;;2265353;61;20414;-58
2023/09/02 02:14:36;0.00;0.00;0.62;0.00;0.00;0.62;2.17;1.70;;;27.70;30.00;;;;;;2265992;61;20431;-54
2023/09/02 02:17:22;0.00;0.00;0.62;0.00;0.00;0.62;2.00;1.60;;;27.70;30.00;;;;;;2266031;61;20380;-51
2023/09/02 02:20:11;0.00;0.00;0.62;0.00;0.00;0.62;2.10;1.67;;;27.70;30.00;;;;;;2265523;61;20364;-52
2023/09/02 02:22:56;0.00;0.00;0.62;0.00;0.00;0.62;2.10;1.67;;;27.70;30.00;;;;;;2265575;61;20825;-54
2023/09/02 02:25:41;0.00;0.00;0.62;0.00;0.00;0.62;2.70;1.90;;;27.70;30.00;;;;;;2265733;61;20376;-55
2023/09/02 02:28:26;0.00;0.00;0.62;0.00;0.00;0.62;2.40;1.70;;;27.70;30.00;;;;;;2265404;61;20364;-55
2023/09/02 02:31:12;0.00;0.00;0.62;0.00;0.00;0.62;2.67;1.83;;;27.70;30.00;;;;;;2265519;61;20802;-56
2023/09/02 02:33:58;0.00;0.00;0.62;0.00;0.00;0.62;2.90;1.97;;;27.70;30.00;;;;;;2265453;61;20360;-55
2023/09/02 02:36:42;0.00;0.00;0.62;0.00;0.00;0.62;1.90;1.47;;;27.70;30.00;;;;;;2265320;61;20777;-57
2023/09/02 02:39:26;0.00;0.00;0.62;0.00;0.00;0.62;2.47;1.90;;;27.70;30.00;;;;;;2265779;61;20395;-54
2023/09/02 02:42:14;0.00;0.00;0.62;0.00;0.00;0.62;2.53;1.80;;;27.70;30.00;;;;;;2266016;61;20356;-56
2023/09/02 02:44:59;0.00;0.00;0.62;0.00;0.00;0.62;2.83;1.60;;;27.70;30.00;;;;;;2265635;61;20420;-53
2023/09/02 02:47:44;0.00;0.00;0.62;0.00;0.00;0.62;3.00;1.77;;;27.70;30.00;;;;;;2265742;61;20387;-55
2023/09/02 02:50:30;0.00;0.00;0.62;0.00;0.00;0.62;2.20;1.70;;;27.70;30.00;;;;;;2265328;61;20403;-55
2023/09/02 02:53:15;0.00;0.00;0.62;0.00;0.00;0.62;3.07;1.50;;;27.70;30.10;;;;;;2264959;61;20372;-57
2023/09/02 02:56:02;0.00;0.00;0.62;0.00;0.00;0.62;1.80;1.50;;;27.70;30.00;;;;;;2265729;61;20400;-55
2023/09/02 02:58:48;0.00;0.00;0.62;0.00;0.00;0.62;2.20;1.50;;;27.70;30.00;;;;;;2265282;61;20368;-51
2023/09/02 03:01:33;0.00;0.00;0.62;0.00;0.00;0.62;2.40;1.90;;;27.60;30.00;;;;;;2265876;61;20452;-52
2023/09/02 03:04:19;0.00;0.00;0.62;0.00;0.00;0.62;3.70;1.73;;;27.70;30.10;;;;;;2264784;61;20484;-53
2023/09/02 03:07:05;0.00;0.00;0.62;0.00;0.00;0.62;1.90;1.40;;;27.70;30.00;;;;;;2265950;61;20371;-54
2023/09/02 03:09:50;0.00;0.00;0.62;0.00;0.00;0.62;2.70;1.70;;;27.60;30.00;;;;;;2265372;61;20452;-54
2023/09/02 03:12:35;0.00;0.00;0.62;0.00;0.00;0.62;2.00;1.57;;;27.60;30.00;;;;;;2265802;61;20801;-57
2023/09/02 03:15:23;0.00;0.00;0.62;0.00;0.00;0.62;2.00;1.37;;;27.60;30.00;;;;;;2265355;61;20427;-54
2023/09/02 03:18:07;0.00;0.00;0.62;0.00;0.00;0.62;1.70;1.40;;;27.60;30.00;;;;;;2266131;61;20382;-54
2023/09/02 03:20:52;0.00;0.00;0.62;0.00;0.00;0.62;2.20;1.70;;;27.70;30.10;;;;;;2265314;61;20403;-52
2023/09/02 03:23:38;0.00;0.00;0.62;0.00;0.00;0.62;1.70;1.37;;;27.60;30.00;;;;;;2265120;61;20375;-57
2023/09/02 03:26:24;0.00;0.00;0.62;0.00;0.00;0.62;1.90;1.70;;;27.70;30.10;;;;;;2265285;61;20364;-55
2023/09/02 03:29:09;0.00;0.00;0.62;0.00;0.00;0.62;2.23;1.60;;;27.60;30.00;;;;;;2265341;61;20368;-60
2023/09/02 03:31:56;0.00;0.00;0.62;0.00;0.00;0.62;2.40;1.90;;;27.60;30.00;;;;;;2265147;61;20407;-56
2023/09/02 03:34:41;0.00;0.00;0.62;0.00;0.00;0.62;2.20;1.70;;;27.70;30.10;;;;;;2264879;61;21046;-55
2023/09/02 03:37:26;0.00;0.00;0.62;0.00;0.00;0.62;2.03;1.47;;;27.60;30.00;;;;;;2265924;61;20434;-56
2023/09/02 03:40:13;0.00;0.00;0.62;0.00;0.00;0.62;2.03;1.60;;;27.60;30.00;;;;;;2265147;61;20449;-56
2023/09/02 03:42:57;0.00;0.00;0.62;0.00;0.00;0.62;1.87;1.57;;;27.60;30.00;;;;;;2265345;61;20386;-52
2023/09/02 03:45:43;0.00;0.00;0.62;0.00;0.00;0.62;1.83;1.63;;;27.70;30.20;;;;;;2265761;61;20384;-57
2023/09/02 03:48:28;0.00;0.00;0.62;0.00;0.00;0.62;1.93;1.67;;;27.60;30.00;;;;;;2265505;61;20813;-57
2023/09/02 03:51:17;0.00;0.00;0.62;0.00;0.00;0.62;2.07;1.60;;;27.60;30.10;;;;;;2265211;61;20375;-53
2023/09/02 03:54:15;0.00;0.00;0.62;0.00;0.00;0.62;5.07;1.80;;;27.70;30.20;;;;;;2265406;61;20399;-51
2023/09/02 03:57:02;0.00;0.00;0.62;0.00;0.00;0.62;2.10;1.83;;;27.60;30.10;;;;;;2265661;61;20770;-55
2023/09/02 03:59:47;0.00;0.00;0.62;0.00;0.00;0.62;2.07;1.60;;;27.60;30.10;;;;;;2265761;61;20363;-55
2023/09/02 04:02:33;0.00;0.00;0.62;0.00;0.00;0.62;2.30;1.50;;;27.60;30.10;;;;;;2265734;61;20383;-53
2023/09/02 04:05:18;0.00;0.00;0.62;0.00;0.00;0.62;2.10;1.67;;;27.60;30.10;;;;;;2265551;61;20938;-56
2023/09/02 04:08:03;0.00;0.00;0.62;0.00;0.00;0.62;1.73;1.50;;;27.60;30.10;;;;;;2266055;61;20395;-57
2023/09/02 04:10:51;0.00;0.00;0.62;0.00;0.00;0.62;2.37;1.67;;;27.60;30.10;;;;;;2265751;61;20368;-55
2023/09/02 04:13:38;0.00;0.00;0.62;0.00;0.00;0.62;2.40;1.67;;;27.60;30.20;;;;;;2265752;61;20368;-50
2023/09/02 04:16:27;0.00;0.00;0.62;0.00;0.00;0.62;1.93;1.73;;;27.60;30.20;;;;;;2265658;61;20407;-56
2023/09/02 04:19:12;0.00;0.00;0.62;0.00;0.00;0.62;2.43;1.90;;;27.60;30.20;;;;;;2265647;61;20470;-55
2023/09/02 04:21:57;0.00;0.00;0.62;0.00;0.00;0.62;1.90;1.50;;;27.60;30.20;;;;;;2266246;61;20483;-56
2023/09/02 04:24:42;0.00;0.00;0.62;0.00;0.00;0.62;1.90;1.50;;;27.60;30.20;;;;;;2265495;61;20504;-51
2023/09/02 04:27:26;0.00;0.00;0.62;0.00;0.00;0.62;3.40;2.23;;;27.60;30.30;;;;;;2265867;61;20928;-52
2023/09/02 04:30:17;0.00;0.00;0.62;0.00;0.00;0.62;2.20;1.60;;;27.60;30.20;;;;;;2266228;61;20894;-54
2023/09/02 04:33:04;0.00;0.00;0.62;0.00;0.00;0.62;3.27;1.57;;;27.60;30.20;;;;;;2265393;61;20414;-56
2023/09/02 04:35:49;0.00;0.00;0.62;0.00;0.00;0.62;1.77;1.50;;;27.60;30.20;;;;;;2265916;61;20416;-54
2023/09/02 04:38:34;0.00;0.00;0.62;0.00;0.00;0.62;2.20;1.47;;;27.60;30.20;;;;;;2265815;61;20450;-57
2023/09/02 04:41:18;0.00;0.00;0.62;0.00;0.00;0.62;1.70;1.40;;;27.60;30.30;;;;;;2263095;61;20355;-56
2023/09/02 04:44:05;0.00;0.00;0.62;0.00;0.00;0.62;2.70;1.63;;;27.60;30.30;;;;;;2262692;61;20430;-55
2023/09/02 04:46:53;0.00;0.00;0.62;0.00;0.00;0.62;2.93;2.03;;;27.60;30.30;;;;;;2265956;61;20464;-52
2023/09/02 04:49:38;0.00;0.00;0.62;0.00;0.00;0.62;4.23;1.80;;;27.60;30.30;;;;;;2265919;61;20656;-58
2023/09/02 04:52:24;0.00;0.00;0.62;0.00;0.00;0.62;2.50;1.80;;;27.60;30.30;;;;;;2266074;61;20399;-55
2023/09/02 04:55:09;0.00;0.00;0.62;0.00;0.00;0.62;2.30;1.80;;;27.60;30.30;;;;;;2265684;61;20434;-54
2023/09/02 04:57:54;0.00;0.00;0.62;0.00;0.00;0.62;2.90;1.43;;;27.60;30.30;;;;;;2266016;61;20372;-54
2023/09/02 05:00:42;0.00;0.00;0.62;0.00;0.00;0.62;1.90;1.70;;;27.60;30.30;;;;;;2263454;61;20363;-53
2023/09/02 05:03:29;0.00;0.00;0.62;0.00;0.00;0.62;2.27;1.70;;;27.60;30.30;;;;;;2265147;61;20618;-53
2023/09/02 05:06:15;0.00;0.00;0.62;0.00;0.00;0.62;2.03;1.67;;;27.60;30.30;;;;;;2265886;61;20372;-57
2023/09/02 05:09:03;0.00;0.00;0.62;0.00;0.00;0.62;2.10;1.70;;;27.60;30.30;;;;;;2265758;61;20812;-53
2023/09/02 05:11:50;0.00;0.00;0.62;0.00;0.00;0.62;2.20;1.63;;;27.60;30.30;;;;;;2262776;61;20469;-57
2023/09/02 05:14:34;0.00;0.00;0.62;0.00;0.00;0.62;2.63;1.70;;;27.60;30.30;;;;;;2265549;61;20407;-50
2023/09/02 05:17:20;0.00;0.00;0.62;0.00;0.00;0.62;3.20;1.90;;;27.60;30.30;;;;;;2265718;61;20364;-55
2023/09/02 05:20:07;0.00;0.00;0.62;0.00;0.00;0.62;1.97;1.47;;;27.60;30.30;;;;;;2266343;61;20468;-53
2023/09/02 05:22:53;0.00;0.00;0.62;0.00;0.00;0.62;2.20;1.53;;;27.50;30.20;;;;;;2265545;61;20364;-55
2023/09/02 05:25:38;0.00;0.00;0.62;0.00;0.00;0.62;2.70;1.93;;;27.60;30.30;;;;;;2265498;61;20783;-58
2023/09/02 05:28:24;0.00;0.00;0.62;0.00;0.00;0.62;1.70;1.60;;;27.50;30.20;;;;;;2265952;61;20383;-55
2023/09/02 05:31:13;0.00;0.00;0.62;0.00;0.00;0.62;2.70;1.90;;;27.60;30.30;;;;;;2265984;61;20411;-51
2023/09/02 05:33:58;0.00;0.00;0.62;0.00;0.00;0.62;1.70;1.20;;;27.50;30.20;;;;;;2265467;61;20359;-54
2023/09/02 05:36:44;0.00;0.00;0.62;0.00;0.00;0.62;2.03;1.73;;;27.60;30.30;;;;;;2266465;61;20360;-53
2023/09/02 05:39:29;0.00;0.00;0.62;0.00;0.00;0.62;1.97;1.60;;;27.50;30.20;;;;;;2266033;61;20400;-53
2023/09/02 05:42:14;0.00;0.00;0.62;0.00;0.00;0.62;2.07;1.70;;;27.60;30.30;;;;;;2266300;61;20395;-56
2023/09/02 05:44:59;0.00;0.00;0.62;0.00;0.00;0.62;2.00;1.60;;;27.50;30.20;;;;;;2265956;61;20465;-51
2023/09/02 05:47:44;0.00;0.00;0.62;0.00;0.00;0.62;2.03;1.50;;;27.60;30.30;;;;;;2266365;61;20912;-56
2023/09/02 05:50:30;0.00;0.00;0.62;0.00;0.00;0.62;1.90;1.33;;;27.60;30.30;;;;;;2266218;61;20367;-58
2023/09/02 05:53:16;0.00;0.00;0.62;0.00;0.00;0.62;2.87;1.83;;;27.50;30.20;;;;;;2265917;61;20411;-54
2023/09/02 05:56:01;0.00;0.00;0.62;0.00;0.00;0.62;2.50;1.87;;;27.60;30.30;;;;;;2265882;61;20384;-54
2023/09/02 05:58:46;0.00;0.00;0.62;0.00;0.00;0.62;2.47;1.80;;;27.60;30.30;;;;;;2265667;61;20422;-56
2023/09/02 06:01:31;0.00;0.00;0.62;0.00;0.00;0.62;2.50;1.80;;;27.60;30.30;;;;;;2265860;61;20443;-52
2023/09/02 06:04:16;0.00;0.00;0.62;0.00;0.00;0.62;2.10;1.70;;;27.50;30.20;;;;;;2265582;61;20407;-50
2023/09/02 06:07:00;0.00;0.00;0.62;0.00;0.00;0.62;2.70;1.50;;;27.50;30.20;;;;;;2265932;61;20360;-57
2023/09/02 06:09:48;0.00;0.00;0.62;0.00;0.00;0.62;2.67;2.03;;;27.50;30.20;;;;;;2266032;61;20365;-56
2023/09/02 06:12:33;0.00;0.00;0.62;0.00;0.00;0.62;3.13;1.97;;;27.60;30.40;;;;;;2265786;61;20392;-55
2023/09/02 06:15:18;0.00;0.00;0.62;0.00;0.00;0.62;2.47;1.83;;;27.50;30.30;;;;;;2262320;61;20375;-56
2023/09/02 06:18:04;0.00;0.00;0.62;0.00;0.00;0.62;2.37;1.90;;;27.60;31.00;;;;;;2266294;61;20406;-54
2023/09/02 06:20:49;0.00;0.00;0.62;0.00;0.00;0.62;3.00;2.07;;;27.50;30.30;;;;;;2266097;61;20403;-55
2023/09/02 06:23:34;0.00;0.00;0.62;0.00;0.00;0.62;2.17;1.57;;;27.60;30.40;;;;;;2265354;61;20775;-56
2023/09/02 06:26:21;0.00;0.00;0.62;0.00;0.00;0.62;2.50;1.90;;;27.50;30.30;;;;;;2265531;61;20360;-50
2023/09/02 06:29:05;0.00;0.00;0.62;0.00;0.00;0.62;3.00;2.30;;;27.50;30.30;;;;;;2266206;61;20376;-56
2023/09/02 06:31:50;0.00;0.00;0.62;0.00;0.00;0.62;2.63;2.30;;;27.50;30.30;;;;;;2265629;61;20510;-55
2023/09/02 06:34:37;0.00;0.00;0.62;0.00;0.00;0.62;2.73;2.03;;;27.50;30.40;;;;;;2265576;61;20470;-53
2023/09/02 06:37:23;0.00;0.00;0.62;0.00;0.00;0.62;3.53;2.10;;;27.50;30.30;;;;;;2266109;61;20359;-54
2023/09/02 06:40:10;0.00;0.00;0.62;0.00;0.00;0.62;2.43;1.77;;;27.50;30.40;;;;;;2265780;61;20379;-54
2023/09/02 06:42:56;0.00;0.00;0.62;0.00;0.00;0.62;3.17;2.33;;;27.50;30.40;;;;;;2266012;61;20396;-50
2023/09/02 06:45:40;0.00;0.00;0.62;0.00;0.00;0.62;2.20;1.70;;;27.50;30.40;;;;;;2266029;61;20395;-54
2023/09/02 06:48:25;0.00;0.00;0.62;0.00;0.00;0.62;3.47;2.43;;;27.50;30.40;;;;;;2265818;61;20902;-52
2023/09/02 06:51:10;0.00;0.00;0.62;0.00;0.00;0.62;2.63;1.70;;;27.50;30.40;;;;;;2265897;61;20499;-57
2023/09/02 06:53:55;0.00;0.00;0.62;0.00;0.00;0.62;3.00;2.20;;;27.50;30.40;;;;;;2265300;61;20456;-55
2023/09/02 06:56:44;0.00;0.00;0.62;0.00;0.00;0.62;2.17;1.80;;;27.50;30.40;;;;;;2265947;61;20398;-56
2023/09/02 06:59:34;0.00;0.00;0.62;0.00;0.00;0.62;2.70;2.20;;;27.50;30.40;;;;;;2262934;61;20766;-55
2023/09/02 07:02:19;0.00;0.00;0.62;0.00;0.00;0.62;2.90;2.53;;;27.50;30.50;;;;;;2265535;61;20419;-53
2023/09/02 07:05:04;0.00;0.00;0.62;0.00;0.00;0.62;3.03;2.00;;;27.50;30.50;;;;;;2265520;61;20793;-54
2023/09/02 07:07:48;0.00;0.00;0.62;0.00;0.00;0.62;2.60;2.10;;;27.50;30.50;;;;;;2266049;61;20921;-55
2023/09/02 07:10:33;0.00;0.00;0.62;0.00;0.00;0.62;2.27;2.00;;;27.50;30.50;;;;;;2266025;61;20887;-56
2023/09/02 07:13:17;0.00;0.00;0.62;0.00;0.00;0.62;2.50;1.93;;;27.50;30.50;;;;;;2265388;61;20379;-57
2023/09/02 07:16:06;0.00;0.00;0.62;0.00;0.00;0.62;2.80;2.20;;;27.50;30.50;;;;;;2265617;61;20446;-55
2023/09/02 07:18:50;0.00;0.00;0.62;0.00;0.00;0.62;3.50;2.40;;;27.50;30.50;;;;;;2265729;61;20460;-58
2023/09/02 07:21:35;0.00;0.00;0.62;0.00;0.00;0.62;2.47;2.00;;;27.50;30.60;;;;;;2266072;61;20364;-55
2023/09/02 07:24:20;0.00;0.00;0.62;0.00;0.00;0.62;2.73;2.20;;;27.50;30.50;;;;;;2265271;61;20383;-57
2023/09/02 07:27:05;0.00;0.00;0.62;0.00;0.00;0.62;1.97;1.53;;;27.50;30.50;;;;;;2266408;61;20395;-55
2023/09/02 07:29:50;0.00;0.00;0.62;0.00;0.00;0.62;2.43;2.13;;;27.50;30.50;;;;;;2266357;61;20364;-56
2023/09/02 07:32:35;0.00;0.00;0.62;0.00;0.00;0.62;2.17;1.80;;;27.50;30.50;;;;;;2265819;61;20483;-57
2023/09/02 07:35:22;0.00;0.00;0.62;0.00;0.00;0.62;3.27;2.10;;;27.50;30.50;;;;;;2264891;61;20733;-57
2023/09/02 07:38:08;0.00;0.00;0.62;0.00;0.00;0.62;2.23;2.03;;;27.50;30.50;;;;;;2265133;61;20379;-53
2023/09/02 07:40:53;0.00;0.00;0.62;0.00;0.00;0.62;3.23;2.20;;;27.50;30.50;;;;;;2266105;61;20360;-56
2023/09/02 07:43:38;0.00;0.00;0.62;0.00;0.00;0.62;2.63;2.10;;;27.50;30.60;;;;;;2265895;61;20940;-56
2023/09/02 07:46:23;0.00;0.00;0.62;0.00;0.00;0.62;2.00;1.50;;;27.50;30.60;;;;;;2265996;61;20410;-57
2023/09/02 07:49:10;0.00;0.00;0.62;0.00;0.00;0.62;2.90;2.10;;;27.50;30.50;;;;;;2265831;61;20359;-57
2023/09/02 07:51:57;0.00;0.00;0.62;0.00;0.00;0.62;2.00;1.70;;;27.50;30.50;;;;;;2266490;61;20442;-55
2023/09/02 07:54:42;0.00;0.00;0.62;0.00;0.00;0.62;2.20;1.80;;;27.50;30.50;;;;;;2265332;61;20433;-57
2023/09/02 07:57:26;0.00;0.00;0.62;0.00;0.00;0.62;2.30;2.00;;;27.50;30.50;;;;;;2266192;61;20375;-55
2023/09/02 08:00:11;0.00;0.00;0.62;0.00;0.00;0.62;2.23;1.90;;;27.60;30.60;;;;;;2266551;61;20407;-54
2023/09/02 08:02:59;0.00;0.00;0.62;0.00;0.00;0.62;3.60;1.90;;;27.60;30.60;;;;;;2266368;61;20445;-56
2023/09/02 08:05:45;0.00;0.00;0.62;0.00;0.00;0.62;2.13;1.80;;;27.60;30.60;;;;;;2266355;61;20380;-57
2023/09/02 08:08:30;0.00;0.00;0.62;0.00;0.00;0.62;2.47;1.83;;;27.60;30.60;;;;;;2266279;61;20771;-55
2023/09/02 08:11:18;0.00;0.00;0.62;0.00;0.00;0.62;1.80;1.53;;;27.60;30.60;;;;;;2266000;61;20372;-56
2023/09/02 08:14:04;0.00;0.00;0.62;0.00;0.00;0.62;2.30;1.70;;;27.60;30.60;;;;;;2265981;61;20475;-56
2023/09/02 08:16:48;0.00;0.00;0.62;0.00;0.00;0.62;2.87;1.70;;;27.60;30.60;;;;;;2265647;61;20901;-49
2023/09/02 08:19:33;0.00;0.00;0.62;0.00;0.00;0.62;2.27;1.80;;;27.60;30.60;;;;;;2266212;61;20360;-52
2023/09/02 08:22:19;0.00;0.00;0.62;0.00;0.00;0.62;3.50;1.93;;;27.60;30.60;;;;;;2266061;61;20438;-55
2023/09/02 08:25:04;0.00;0.00;0.62;0.00;0.00;0.62;1.93;1.50;;;27.60;30.60;;;;;;2266124;61;20416;-56
2023/09/02 08:27:49;0.00;0.00;0.62;0.00;0.00;0.62;2.60;2.10;;;27.60;30.60;;;;;;2266274;61;20368;-56
2023/09/02 08:30:33;0.00;0.00;0.62;0.00;0.00;0.62;2.43;1.67;;;27.60;30.60;;;;;;2266110;61;20785;-55
2023/09/02 08:33:18;0.00;0.00;0.62;0.00;0.00;0.62;2.47;1.90;;;27.60;30.60;;;;;;2265620;61;20924;-58
2023/09/02 08:36:03;0.00;0.00;0.62;0.00;0.00;0.62;2.20;1.70;;;27.60;30.60;;;;;;2266084;61;20410;-57
2023/09/02 08:38:51;0.00;0.00;0.62;0.00;0.00;0.62;2.50;1.80;;;27.60;30.60;;;;;;2265945;61;20490;-51
2023/09/02 08:41:40;0.00;0.00;0.62;0.00;0.00;0.62;2.33;1.87;;;27.60;30.60;;;;;;2266452;61;20356;-52
2023/09/02 08:44:27;0.00;0.00;0.62;0.00;0.00;0.62;2.00;1.60;;;27.70;30.70;;;;;;2265995;61;20387;-56
2023/09/02 08:47:15;0.00;0.00;0.62;0.00;0.00;0.62;2.40;1.60;;;27.60;30.60;;;;;;2266183;61;20383;-56
2023/09/02 08:50:01;0.00;0.00;0.62;0.00;0.00;0.62;2.13;1.80;;;27.70;30.70;;;;;;2266106;61;20398;-54
2023/09/02 08:52:46;0.00;0.00;0.62;0.00;0.00;0.62;2.33;2.00;;;27.70;30.70;;;;;;2265992;61;20396;-54
2023/09/02 08:55:35;0.00;0.00;0.62;0.00;0.00;0.62;2.10;1.87;;;27.60;30.60;;;;;;2509771;53;20385;-51
2023/09/02 08:58:20;0.00;0.00;0.62;0.00;0.00;0.62;2.97;2.00;;;27.70;30.70;;;;;;2262344;61;20365;-57
2023/09/02 09:01:06;0.00;0.00;0.62;0.00;0.00;0.62;3.13;1.73;;;27.70;30.70;;;;;;2261660;61;20416;-53
2023/09/02 09:03:56;0.00;0.00;0.62;0.00;0.00;0.62;1.90;1.50;;;27.70;30.70;;;;;;2261832;61;20376;-51
2023/09/02 09:06:42;0.00;0.00;0.62;0.00;0.00;0.62;2.30;1.80;;;27.70;30.70;;;;;;2261724;61;20357;-56
2023/09/02 09:09:27;0.00;0.00;0.62;0.00;0.00;0.62;2.40;1.57;;;27.70;30.70;;;;;;2262093;61;20411;-52
2023/09/02 09:12:19;0.00;0.00;0.62;0.00;0.00;0.62;2.67;1.70;;;27.70;30.70;;;;;;2262171;61;20373;-52
2023/09/02 09:15:06;0.00;0.00;0.62;0.00;0.00;0.62;1.70;1.27;;;27.70;30.70;;;;;;2261499;61;20389;-57
2023/09/02 09:17:52;0.00;0.00;0.62;0.00;0.00;0.62;2.00;1.50;;;27.70;30.70;;;;;;2261646;61;20783;-57
2023/09/02 09:20:37;0.00;0.00;0.62;0.00;0.00;0.62;1.90;1.60;;;27.70;30.80;;;;;;2264522;61;20462;-56
2023/09/02 09:23:22;0.00;0.00;0.62;0.00;0.00;0.62;1.77;1.23;;;27.70;30.70;;;;;;2261461;61;20412;-59
2023/09/02 09:26:11;0.00;0.00;0.62;0.00;0.00;0.62;1.77;1.43;;;27.70;30.80;;;;;;2261868;61;20423;-56
2023/09/02 09:28:59;0.00;0.00;0.62;0.00;0.00;0.62;2.00;1.53;;;27.70;30.70;;;;;;2261656;61;20357;-57
2023/09/02 09:31:45;0.00;0.00;0.62;0.00;0.00;0.62;2.00;1.60;;;27.70;30.70;;;;;;2262073;61;20428;-52
2023/09/02 09:34:36;0.00;0.00;0.62;0.00;0.00;0.62;2.63;1.57;;;27.80;30.80;;;;;;2261217;61;20481;-56
2023/09/02 09:37:22;0.00;0.00;0.62;0.00;0.00;0.62;2.87;1.40;;;27.80;30.80;;;;;;2262262;61;20803;-56
2023/09/02 09:40:11;0.00;0.00;0.62;0.00;0.00;0.62;3.23;2.40;;;27.80;30.80;;;;;;2262144;61;20388;-55
2023/09/02 09:42:57;0.00;0.00;0.62;0.00;0.00;0.62;1.90;1.40;;;27.80;30.80;;;;;;2261686;61;20364;-58
2023/09/02 09:45:52;0.00;0.00;0.62;0.00;0.00;0.62;2.10;1.60;;;27.80;30.80;;;;;;2261732;61;20473;-55
2023/09/02 09:48:46;0.00;0.00;0.62;0.00;0.00;0.62;2.43;1.30;;;27.80;30.80;;;;;;2262186;61;20457;-57
2023/09/02 09:51:32;0.00;0.00;0.62;0.00;0.00;0.62;2.30;1.53;;;27.80;30.80;;;;;;2261556;61;20400;-55
2023/09/02 09:54:16;0.00;0.00;0.62;0.00;0.00;0.62;2.20;1.80;;;27.80;30.80;;;;;;2261420;61;20580;-56
2023/09/02 09:57:01;0.00;0.00;0.62;0.00;0.00;0.62;2.13;1.53;;;27.80;30.80;;;;;;2262262;61;20890;-51
2023/09/02 09:59:52;0.00;0.00;0.62;0.00;0.00;0.62;1.87;1.60;;;27.90;30.90;;;;;;2261670;61;20906;-55
2023/09/02 10:02:38;0.00;0.00;0.62;0.00;0.00;0.62;1.97;1.47;;;27.90;30.90;;;;;;2262009;61;20894;-49
2023/09/02 10:05:24;0.00;0.00;0.62;0.00;0.00;0.62;1.60;1.20;;;27.90;30.90;;;;;;2261716;61;20424;-60
2023/09/02 10:08:10;0.00;0.00;0.62;0.00;0.00;0.62;2.77;1.97;;;27.90;30.90;;;;;;2261828;61;20393;-53
2023/09/02 10:10:56;0.00;0.00;0.62;0.00;0.00;0.62;2.10;1.57;;;27.90;30.90;;;;;;2261943;61;20365;-52
2023/09/02 10:13:41;0.00;0.00;0.62;0.00;0.00;0.62;2.50;1.80;;;27.90;31.00;;;;;;2261651;61;20427;-51
2023/09/02 10:16:29;0.00;0.00;0.62;0.00;0.00;0.62;2.10;1.50;;;27.90;31.00;;;;;;2261825;61;20365;-51
2023/09/02 10:19:16;0.00;0.00;0.62;0.00;0.00;0.62;2.30;1.80;;;27.90;31.00;;;;;;2261752;61;20931;-57
2023/09/02 10:22:03;0.00;0.00;0.62;0.00;0.00;0.62;2.57;1.80;;;27.90;31.00;;;;;;2261534;61;20365;-58
2023/09/02 10:24:58;0.00;0.00;0.62;0.00;0.00;0.62;2.03;1.70;;;27.90;31.00;;;;;;2260995;61;20392;-56
2023/09/02 10:27:51;0.00;0.00;0.62;0.00;0.00;0.62;1.70;1.50;;;27.90;31.00;;;;;;2261829;61;20365;-61
2023/09/02 10:30:43;0.00;0.00;0.62;0.00;0.00;0.62;1.80;1.40;;;28.00;31.10;;;;;;2261845;61;20428;-56
2023/09/02 10:33:38;0.00;0.00;0.62;0.00;0.00;0.62;2.30;1.50;;;28.00;31.10;;;;;;2261310;61;20479;-54
2023/09/02 10:36:28;0.00;0.00;0.62;0.00;0.00;0.62;1.70;1.37;;;28.00;31.10;;;;;;2261197;61;20407;-52
2023/09/02 10:39:24;0.00;0.00;0.62;0.00;0.00;0.62;2.40;1.50;;;28.00;31.10;;;;;;2262968;61;20487;-55
2023/09/02 10:42:15;0.00;0.00;0.62;0.00;0.00;0.62;2.10;1.50;;;28.00;31.10;;;;;;2265559;61;20360;-55
2023/09/02 10:45:03;0.00;0.00;0.62;0.00;0.00;0.62;2.50;1.80;;;28.00;31.10;;;;;;2265458;61;20826;-51
2023/09/02 10:47:52;0.00;0.00;0.62;0.00;0.00;0.62;1.80;1.60;;;28.00;31.10;;;;;;2265739;61;20403;-56
2023/09/02 10:50:39;0.00;0.00;0.62;0.00;0.00;0.62;2.03;1.40;;;28.10;31.20;;;;;;2265880;61;20954;-53
2023/09/02 10:54:04;0.00;0.00;0.62;0.00;0.00;0.62;2.03;1.47;;;28.10;31.20;;;;;;2265144;61;20403;-55
2023/09/02 10:56:51;0.00;0.00;0.62;0.00;0.00;0.62;2.50;1.77;;;28.10;31.20;;;;;;2255743;61;20451;-51